ハリファックス の空港の天気 - METARとTAF

ハリファックス国際空港 ( CYHZ / YHZ ) - カナダ ノバスコシア州ハリファックス
飛行場実況気象(Metar)
観測時間08/04 16:00 ADT (08/04 19:00 UTC)
風向・風速南南西 3m/s
視程10km以上
天気現象
少しの雲 雲底高度 1340m
全天の4割程度の雲 雲底高度 7920m
気温26℃
湿度51%
気圧1022.7hPa
METARCYHZ 041900Z 21006KT 160V240 15SM FEW044 SCT260 26/15 A3020 RMK CU1CI2 SLP227 DENSITY ALT 1600FT
過去の天気等 Google飛行場航空写真 Wunderground天気予報

過去48時間のMETAR

飛行場予報(TAF)
発表時間: 8/04 14:40 ADT (8/04 17:40 UTC)
予報対象時間: 4日15時 ADT ~ 5日15時 ADT
風向・風速南南西 4m/s
視程10km以上
全天を覆う雲 雲底高度 5490m
4日21時 ADT から
風向・風速南南西 4m/s
視程10km以上
少しの雲 雲底高度 120m
全天の8割程度の雲 雲底高度 4880m
5日0時 ADT から
風向・風速南 3m/s
視程10km以上
天気現象もや
全天の4割程度の雲 雲底高度 60m
全天を覆う雲 雲底高度 3960m
5日2時 ADT から 確率 30% で
視程800m
天気現象
全天を覆う雲 鉛直視程 60m
5日7時 ADT から
風向・風速南 4m/s
視程10km以上
全天の4割程度の雲 雲底高度 90m
全天を覆う雲 雲底高度 3050m
5日7時 ADT から 確率 30% で
視程800m
天気現象弱いしゅう雨 弱い霧雨 霧
全天の8割程度の雲 雲底高度 60m
5日10時 ADT から
風向・風速南 6m/s
視程3220m
天気現象雨 もや
全天の8割程度の雲 雲底高度 90m
全天を覆う雲 雲底高度 240m
5日10時 ADT から 確率 30% で
視程800m
天気現象強いしゅう雨 霧
全天の8割程度の雲 雲底高度 60m
5日13時 ADT から
風向・風速南 5m/s 瞬間風速 10m/s
視程3220m
天気現象弱い霧雨 もや
全天を覆う雲 雲底高度 240m
TAF CYHZ 041740Z 0418/0518 21008KT P6SM OVC180
FM050000 20008KT P6SM FEW004 BKN160
FM050300 18006KT 6SM BR SCT002 OVC130
PROB30 0505/0510 1/2SM FG VV002
FM051000 17008KT P6SM SCT003 OVC100
PROB30 0510/0513 1/2SM -SHRA -DZ FG BKN002
FM051300 17012KT 2SM RA BR BKN003 OVC008
PROB30 0513/0516 1/2SM +SHRA FG BKN002
FM051600 18010G20KT 2SM -DZ BR OVC008 RMK NXT FCST BY 042100Z